IT Intrepid — 8PSH — position and weather

sailwx.info

Track history (hours):
 
Tides and Currents Weather Stations Pressure Air Temp Water Temp Dewpoint Dewpoint Depression Visibility Wind Speed Wind Dir Waves Ship Positions

IT Intrepid (Canada)

Canada's IT Telecom's cable laying ship. Ex Sir Eric Sharp, built at Swan Hunter.

Ship's website: http://www.ittelecom.com/IT%20Intrepid%20Data%20Sheet.pdf

Last reported at 2016-Dec-07 09:00 UTC. Time now 2016-Dec-07 10:38 UTC.
Position N 44°42' W 063°36'.

Length 115 m; beam 18 m; draft 6.3 m.

Type: Dredging. MMSI: 314199000.

Wind from 330 at 4 knots

Barometer 1015.4 mb
Air temperature -4.2 ° C
Dewpoint -4.1 ° C

Date/timePositionNaut miles runAvg speedWind from/ knotsBaromVisibWave heightAir tempDewpointWater temp
2016-Dec-07 09:00N 44°42' W 063°36'0 0.0 330 / 41015.4 -4.2-4.1
2016-Dec-07 08:00N 44°42' W 063°36'0 0.0 350 / 41015.8 -4.3-4.2
2016-Dec-07 07:00N 44°42' W 063°36'0 0.0 340 / 31016.4 -3.7-3.6
2016-Dec-07 06:00N 44°42' W 063°36'0 0.0 350 / 31016.5 -3.8-3.7
2016-Dec-07 05:00N 44°42' W 063°36'0 0.0 030 / 41016.6 -3.4-3.3
2016-Dec-07 04:00N 44°42' W 063°36'0 0.0 030 / 21017.0 -3.3-3.2
2016-Dec-07 03:00N 44°42' W 063°36'0 0.0 010 / 31016.7 -3.5-3.4
2016-Dec-07 02:00N 44°42' W 063°36'0 0.0 020 / 41016.5 -3.2-3.1
2016-Dec-07 01:00N 44°42' W 063°36'0 0.0 340 / 41016.6 -3.3-3.2
2016-Dec-07 00:00N 44°42' W 063°36'0 0.0 010 / 61016.6 -2.2-2.1
2016-Dec-06 23:00N 44°42' W 063°36'0 0.0 330 / 101016.1 -0.7-0.6
2016-Dec-06 22:00N 44°42' W 063°36'0 0.0 340 / 61015.7 -0.7-0.6
2016-Dec-06 21:00N 44°42' W 063°36'0 0.0 340 / 81015.4 -0.0 0.1
2016-Dec-06 20:00N 44°42' W 063°36'0 0.0 330 / 101014.9 1.0 1.1
2016-Dec-06 19:00N 44°42' W 063°36'0 0.0 330 / 111014.9 1.1 1.2
2016-Dec-06 18:00N 44°42' W 063°36'0 0.0 320 / 101014.6 1.5 1.6
2016-Dec-06 17:00N 44°42' W 063°36'0 0.0 320 / 91014.5 0.7 0.9
2016-Dec-06 16:00N 44°42' W 063°36'0 0.0 330 / 81014.8 0.1 0.2
2016-Dec-06 15:00N 44°42' W 063°36'0 0.0 350 / 61015.2 -0.9-0.8
2016-Dec-06 14:00N 44°42' W 063°36'0 0.0 350 / 71015.6 -1.4-1.3
2016-Dec-06 13:00N 44°42' W 063°36'0 0.0 340 / 41015.3 -1.9-1.7
2016-Dec-06 12:00N 44°42' W 063°36'0 0.0 340 / 41014.6 -3.0-2.7
2016-Dec-06 11:00N 44°42' W 063°36'0 0.0 330 / 31014.1 -2.9-2.7
2016-Dec-06 10:00N 44°42' W 063°36'0 0.0 340 / 41013.4 -2.7-2.5
2016-Dec-06 09:00N 44°42' W 063°36'0 0.0 340 / 31012.8 -2.6-2.5
2016-Dec-06 08:00N 44°42' W 063°36'0 0.0 360 / 21012.8 -2.3-2.1
2016-Dec-06 07:00N 44°42' W 063°36'0 0.0 050 / 21012.7 -1.9-1.8
2016-Dec-06 06:00N 44°42' W 063°36'0 0.0 100 / 31012.9 -1.5-1.4
2016-Dec-06 05:00N 44°42' W 063°36'0 0.0 040 / 21013.1 -1.6-1.4
2016-Dec-06 04:00N 44°42' W 063°36'0 0.0 040 / 21013.4 -1.5-1.4
2016-Dec-06 03:00N 44°42' W 063°36'0 0.0 010 / 31013.8 -1.4-1.3
2016-Dec-06 02:00N 44°42' W 063°36'0 0.0 010 / 11014.0 -1.2-1.1
2016-Dec-06 01:00N 44°42' W 063°36'0 0.0 350 / 11014.1 -1.4-1.2
2016-Dec-06 00:00N 44°42' W 063°36'0 0.0 040 / 31014.4 -1.3-1.2
2016-Dec-05 23:00N 44°42' W 063°36'0 0.0 010 / 41015.3 -1.3-1.2
2016-Dec-05 22:00N 44°42' W 063°36'0 0.0 320 / 31015.4 -0.7-0.6
2016-Dec-05 21:00N 44°42' W 063°36'0 0.0 340 / 51015.4 -0.7-0.6
2016-Dec-05 20:00N 44°42' W 063°36'0 0.0 350 / 31015.4 -0.8-0.7
2016-Dec-05 18:00N 44°42' W 063°36'0 0.0 350 / 41015.5 -1.0-0.9
2016-Dec-05 17:00N 44°42' W 063°36'0 0.0 350 / 51015.8 -1.2-1.2
2016-Dec-05 16:00N 44°42' W 063°36'0 0.0 350 / 61016.7 -1.6-1.5
2016-Dec-05 15:00N 44°42' W 063°36'0 0.0 330 / 71017.7 -2.2-2.0
2016-Dec-05 14:00N 44°42' W 063°36'0 0.0 340 / 81018.3 -2.9-2.8
2016-Dec-05 13:00N 44°42' W 063°36'0 0.0 340 / 71017.9 -3.1-3.0
2016-Dec-05 12:00N 44°42' W 063°36'0 0.0 340 / 71017.4 -3.2-3.1
2016-Dec-05 11:00N 44°42' W 063°36'0 0.0 350 / 91017.6 -2.7-2.6
2016-Dec-05 10:00N 44°42' W 063°36'0 0.0 320 / 131017.2 -2.1-2.0
2016-Dec-05 09:00N 44°42' W 063°36'0 0.0 310 / 101017.4 -1.5-1.3
2016-Dec-05 08:00N 44°42' W 063°36'0 0.0 330 / 81017.5 -1.5-1.4
2016-Dec-05 07:00N 44°42' W 063°36'0 0.0 340 / 101017.6 -1.6-1.5
2016-Dec-05 06:00N 44°42' W 063°36'0 0.0 320 / 131017.4 -1.4-1.3
2016-Dec-05 05:00N 44°42' W 063°36'0 0.0 340 / 91017.6 -1.4-1.3
2016-Dec-05 04:00N 44°42' W 063°36'0 0.0 340 / 81017.9 -1.7-1.6
2016-Dec-05 03:00N 44°42' W 063°36'0 0.0 330 / 131017.6 -1.3-1.2
2016-Dec-05 02:00N 44°42' W 063°36'0 0.0 340 / 111017.6 -0.9-0.7
2016-Dec-05 01:00N 44°42' W 063°36'0 0.0 340 / 111017.4 -0.7-0.5
2016-Dec-05 00:00N 44°42' W 063°36'0 0.0 340 / 101017.3 -0.7-0.5
2016-Dec-04 23:00N 44°42' W 063°36'0 0.0 330 / 121016.7 -0.6-0.3
2016-Dec-04 22:00N 44°42' W 063°36'0 0.0 340 / 81016.0 -0.6-0.4
2016-Dec-04 21:00N 44°42' W 063°36'0 0.0 340 / 111015.2 -0.0 0.2
2016-Dec-04 20:00N 44°42' W 063°36'0 0.0 340 / 131014.4 0.5 0.7
2016-Dec-04 19:00N 44°42' W 063°36'0 0.0 330 / 131013.6 0.8 1.0
2016-Dec-04 18:00N 44°42' W 063°36'0 0.0 330 / 171013.0 0.7 0.9
2016-Dec-04 17:00N 44°42' W 063°36'0 0.0 330 / 141013.0 0.5 0.7
2016-Dec-04 16:00N 44°42' W 063°36'0 0.0 330 / 131013.1 0.6 0.8
2016-Dec-04 15:00N 44°42' W 063°36'0 0.0 340 / 151013.0 0.7 1.0
2016-Dec-04 14:00N 44°42' W 063°36'0 0.0 330 / 141012.7 0.9 1.2
2016-Dec-04 13:00N 44°42' W 063°36'0 0.0 340 / 81012.3 0.4 0.8
2016-Dec-04 12:00N 44°42' W 063°36'0 0.0 330 / 111011.8 0.5 0.9
2016-Dec-04 11:00N 44°42' W 063°36'0 0.0 330 / 121011.2 0.5 0.9
2016-Dec-04 10:00N 44°42' W 063°36'0 0.0 330 / 101010.5 0.7 1.1
2016-Dec-04 09:00N 44°42' W 063°36'0 0.0 330 / 81010.1 0.5 0.9
2016-Dec-04 08:00N 44°42' W 063°36'0 0.0 340 / 91009.7 0.8 1.2
2016-Dec-04 07:00N 44°42' W 063°36'0 0.0 340 / 101009.3 1.3 1.6
2016-Dec-04 06:00N 44°42' W 063°36'0 0.0 340 / 101008.3 1.9 2.3
2016-Dec-04 05:00N 44°42' W 063°36'0 0.0 350 / 111007.6 2.2 2.6
2016-Dec-04 04:00N 44°42' W 063°36'0 0.0 340 / 101007.1 2.3 2.7
2016-Dec-04 03:00N 44°42' W 063°36'0 0.0 340 / 101006.5 2.3 2.7
2016-Dec-04 02:00N 44°42' W 063°36'0 0.0 340 / 91006.2 2.4 2.9
2016-Dec-04 01:00N 44°42' W 063°36'0 0.0 340 / 101005.7 2.7 3.1
2016-Dec-04 00:00N 44°42' W 063°36'0 0.0 340 / 121005.1 2.9 3.3
2016-Dec-03 23:00N 44°42' W 063°36'0 0.0 340 / 121004.4 3.2 3.6
2016-Dec-03 22:00N 44°42' W 063°36'0 0.0 330 / 111003.6 3.4 3.8
2016-Dec-03 21:00N 44°42' W 063°36'0 0.0 330 / 131002.9 3.9 4.3
2016-Dec-03 20:00N 44°42' W 063°36'0 0.0 330 / 141002.2 4.1 4.5
2016-Dec-03 19:00N 44°42' W 063°36'0 0.0 330 / 121001.5 4.2 4.6
2016-Dec-03 18:00N 44°42' W 063°36'0 0.0 330 / 171001.2 3.5 3.9
2016-Dec-03 17:00N 44°42' W 063°36'0 0.0 340 / 131001.1 3.2 3.7
2016-Dec-03 16:00N 44°42' W 063°36'0 0.0 340 / 101001.3 2.6 3.1
2016-Dec-03 15:00N 44°42' W 063°36'0 0.0 330 / 121001.5 2.1 2.6
2016-Dec-03 14:00N 44°42' W 063°36'0 0.0 330 / 71001.7 1.5 2.0
2016-Dec-03 13:00N 44°42' W 063°36'0 0.0 330 / 81001.6 1.0 1.5
2016-Dec-03 12:00N 44°42' W 063°36'0 0.0 330 / 61001.6 0.6 1.1
2016-Dec-03 11:00N 44°42' W 063°36'0 0.0 310 / 71001.4 0.9 1.3
2016-Dec-03 10:00N 44°42' W 063°36'0 0.0 330 / 61001.3 0.5 1.0
2016-Dec-03 09:00N 44°42' W 063°36'0 0.0 340 / 51001.4 0.7 1.1
2016-Dec-03 08:00N 44°42' W 063°36'0 0.0 330 / 61001.5 0.8 1.2
2016-Dec-03 07:00N 44°42' W 063°36'0 0.0 330 / 61001.9 1.1 1.5
2016-Dec-03 06:00N 44°42' W 063°36'0 0.0 340 / 81001.8 0.9 1.3
2016-Dec-03 05:00N 44°42' W 063°36'0 0.0 330 / 91001.7 1.3 1.7
2016-Dec-03 04:00N 44°42' W 063°36'0 0.0 340 / 91002.0 1.7 2.1
2016-Dec-03 03:00N 44°42' W 063°36'0 0.0 330 / 131002.2 2.4 2.7
2016-Dec-03 02:00N 44°42' W 063°36'0 0.0 320 / 111002.4 2.6 3.0
2016-Dec-03 01:00N 44°42' W 063°36'0 0.0 290 / 51002.8 2.7 3.0
2016-Dec-03 00:00N 44°42' W 063°36'0 0.0 290 / 51002.7 3.3 3.6
2016-Dec-02 23:00N 44°42' W 063°36'0 0.0 300 / 61002.4 3.3 3.7
2016-Dec-02 22:00N 44°42' W 063°36'0 0.0 300 / 71002.2 4.1 4.4
2016-Dec-02 21:00N 44°42' W 063°36'0 0.0 310 / 161001.8 4.4 4.7
2016-Dec-02 20:00N 44°42' W 063°36'0 0.0 310 / 151001.3 5.3 5.6
2016-Dec-02 19:00N 44°42' W 063°36'0 0.0 320 / 211000.3 5.4 5.7
2016-Dec-02 18:00N 44°42' W 063°36'0 0.0 310 / 171000.0 5.9 6.3
2016-Dec-02 17:00N 44°42' W 063°36'0 0.0 300 / 15999.8 5.9 6.3
2016-Dec-02 16:00N 44°42' W 063°36'0 0.0 310 / 14999.8 5.6 5.9
2016-Dec-02 15:00N 44°42' W 063°36'0 0.0 300 / 13999.9 5.1 5.5
2016-Dec-02 14:00N 44°42' W 063°36'0 0.0 290 / 12999.5 5.0 5.4
2016-Dec-02 13:00N 44°42' W 063°36'0 0.0 310 / 12999.0 4.3 4.7
2016-Dec-02 12:00N 44°42' W 063°36'0 0.0 290 / 8998.1 5.0 5.4
2016-Dec-02 11:00N 44°42' W 063°36'0 0.0 280 / 9997.4 5.3 5.8
2016-Dec-02 10:00N 44°42' W 063°36'0 0.0 290 / 8996.7 5.5 6.0
2016-Dec-02 09:00N 44°42' W 063°36'0 0.0 290 / 9996.3 5.8 6.3
2016-Dec-02 08:00N 44°42' W 063°36'0 0.0 290 / 9995.6 5.5 6.0
2016-Dec-02 07:00N 44°42' W 063°36'0 0.0 290 / 10995.3 5.1 5.7
2016-Dec-02 06:00N 44°42' W 063°36'0 0.0 290 / 11994.3 5.5 6.1
2016-Dec-02 05:00N 44°42' W 063°36'0 0.0 300 / 11993.1 6.7 7.4
2016-Dec-02 04:00N 44°42' W 063°36'0 0.0 280 / 10992.0 8.7 9.6
2016-Dec-02 03:00N 44°42' W 063°36'0 0.0 260 / 4991.3 9.110.1
2016-Dec-02 02:00N 44°42' W 063°36'0 0.0 240 / 2991.0 9.810.8
2016-Dec-02 01:00N 44°42' W 063°36'0 0.0 160 / 4991.1 9.010.0
2016-Dec-02 00:00N 44°42' W 063°36'0 0.0 150 / 9991.4 8.8 9.8
2016-Dec-01 23:00N 44°42' W 063°36'0 0.0 170 / 10992.3 8.6 9.5
2016-Dec-01 22:00N 44°42' W 063°36'0 0.0 120 / 20993.0 8.4 9.3
2016-Dec-01 21:00N 44°42' W 063°36'0 0.0 130 / 25994.9 8.2 9.0
2016-Dec-01 20:00N 44°42' W 063°36'0 0.0 140 / 23995.6 8.1 8.9
2016-Dec-01 19:00N 44°42' W 063°36'0 0.0 130 / 24997.3 7.5 8.4
2016-Dec-01 18:00N 44°42' W 063°36'0 0.0 140 / 27999.2 6.9 7.6
2016-Dec-01 17:00N 44°42' W 063°36'0 0.0 130 / 291000.8 6.4 7.1
2016-Dec-01 16:00N 44°42' W 063°36'0 0.0 130 / 281003.4 6.0 6.7
2016-Dec-01 15:00N 44°42' W 063°36'0 0.0 130 / 301006.1 5.6 6.2
2016-Dec-01 14:00N 44°42' W 063°36'0 0.0 130 / 241009.1 5.4 6.0
2016-Dec-01 13:00N 44°42' W 063°36'0 0.0 130 / 211011.6 5.1 5.7
2016-Dec-01 12:00N 44°42' W 063°36'0 0.0 130 / 201013.4 5.0 5.6
2016-Dec-01 10:00N 44°42' W 063°36'0 0.0 110 / 131015.7 2.9 3.4
2016-Dec-01 09:00N 44°42' W 063°36'0 0.0 100 / 121016.4 2.6 3.1
2016-Dec-01 08:00N 44°42' W 063°36'0 0.0 110 / 131017.2 2.4 2.8
2016-Dec-01 07:00N 44°42' W 063°36'0 0.0 110 / 111017.9 2.2 2.7
2016-Dec-01 06:00N 44°42' W 063°36'0 0.0 090 / 71018.7 2.4 2.8
2016-Dec-01 05:00N 44°42' W 063°36'0 0.0 060 / 61019.3 2.3 2.8
2016-Dec-01 04:00N 44°42' W 063°36'0 0.0 100 / 81019.7 2.3 2.7
2016-Dec-01 03:00N 44°42' W 063°36'0 0.0 120 / 91020.2 2.0 2.4
2016-Dec-01 01:00N 44°42' W 063°36'0 0.0 050 / 41021.1 2.1 2.5
2016-Dec-01 00:00N 44°42' W 063°36'0 0.0 070 / 51020.5 2.1 2.5
2016-Nov-30 23:00N 44°42' W 063°36'0 0.0 050 / 51019.9 2.5 3.0
2016-Nov-30 22:00N 44°42' W 063°36'0 0.0 050 / 61018.8 2.8 3.2
2016-Nov-30 21:00N 44°42' W 063°36'0 0.0 030 / 51018.0 3.0 3.5
2016-Nov-30 20:00N 44°42' W 063°36'0 0.0 040 / 71016.4 3.2 3.7
2016-Nov-30 19:00N 44°42' W 063°36'0 0.0 030 / 101015.5 2.9 3.4
2016-Nov-30 18:00N 44°42' W 063°36'0 0.0 360 / 101014.3 3.2 3.8
2016-Nov-30 17:00N 44°42' W 063°36'0 0.0 030 / 91013.4 3.8 4.4
2016-Nov-30 16:00N 44°42' W 063°36'0 0.0 020 / 81012.0 3.0 3.5
2016-Nov-30 15:00N 44°42' W 063°36'0 0.0 040 / 111010.3 2.5 3.1
2016-Nov-30 14:00N 44°42' W 063°36'0 0.0 030 / 121009.2 3.3 4.0
2016-Nov-30 13:00N 44°42' W 063°36'0 0.0 080 / 111008.7 6.2 7.0
2016-Nov-30 12:00N 44°42' W 063°36'0 0.0 120 / 171010.3 6.1 6.9
2016-Nov-30 11:00N 44°42' W 063°36'0 0.0 140 / 201011.5 5.8 6.5
2016-Nov-30 10:00N 44°42' W 063°36'0 0.0 140 / 201011.7 5.4 6.1
2016-Nov-30 09:00N 44°42' W 063°36'0 0.0 140 / 221014.2 4.1 4.7
2016-Nov-30 08:00N 44°42' W 063°36'0 0.0 150 / 161016.5 3.9 4.4
2016-Nov-30 07:00N 44°42' W 063°36'0 0.0 130 / 171019.2 3.1 3.6
2016-Nov-30 06:00N 44°42' W 063°36'0 0.0 140 / 121020.7 3.3 3.8
2016-Nov-30 05:00N 44°42' W 063°36'0 0.0 120 / 111021.5 2.9 3.3
2016-Nov-30 04:00N 44°42' W 063°36'0 0.0 130 / 71022.9 2.6 3.0
2016-Nov-30 03:00N 44°42' W 063°36'0 0.0 120 / 61023.5 2.4 2.7
2016-Nov-30 02:00N 44°42' W 063°36'0 0.0 120 / 71024.4 2.4 2.7
2016-Nov-30 01:00N 44°42' W 063°36'0 0.0 130 / 51025.0 2.7 2.9
2016-Nov-30 00:00N 44°42' W 063°36'0 0.0 110 / 61025.0 2.9 3.1
2016-Nov-29 23:00N 44°42' W 063°36'0 0.0 020 / 11025.8 2.9 3.2
2016-Nov-29 22:00N 44°42' W 063°36'0 0.0 030 / 21025.5 2.9 3.2
2016-Nov-29 21:00N 44°42' W 063°36'0 0.0 050 / 51024.7 3.1 3.3
2016-Nov-29 20:00N 44°42' W 063°36'0 0.0 340 / 51024.9 3.4 3.6
2016-Nov-29 19:00N 44°42' W 063°36'0 0.0 010 / 51023.9 3.6 3.8
2016-Nov-29 18:00N 44°42' W 063°36'0 0.0 350 / 51024.1 3.4 3.7
2016-Nov-29 17:00N 44°42' W 063°36'0 0.0 330 / 81024.4 3.3 3.6
2016-Nov-29 16:00N 44°42' W 063°36'0 0.0 360 / 71024.0 3.1 3.3
2016-Nov-29 15:00N 44°42' W 063°36'0 0.0 340 / 101024.4 2.6 2.9
2016-Nov-29 14:00N 44°42' W 063°36'0 0.0 350 / 111024.0 2.1 2.3
2016-Nov-29 13:00N 44°42' W 063°36'0 0.0 330 / 111023.2 1.5 1.7
2016-Nov-29 12:00N 44°42' W 063°36'0 0.0 330 / 111022.7 0.7 1.0
2016-Nov-29 11:00N 44°42' W 063°36'0 0.0 330 / 121021.9 0.5 0.8
2016-Nov-29 10:00N 44°42' W 063°36'0 0.0 320 / 111020.9 0.7 1.0
2016-Nov-29 09:00N 44°42' W 063°36'0 0.0 320 / 131020.4 0.9 1.2
2016-Nov-29 08:00N 44°42' W 063°36'0 0.0 320 / 131019.6 1.1 1.4
2016-Nov-29 07:00N 44°42' W 063°36'0 0.0 310 / 101018.7 1.7 1.9
2016-Nov-29 06:00N 44°42' W 063°36'0 0.0 330 / 111017.8 1.8 2.1
2016-Nov-29 05:00N 44°42' W 063°36'0 0.0 310 / 121017.0 2.3 2.6
2016-Nov-29 04:00N 44°42' W 063°36'0 0.0 310 / 121016.6 2.6 2.9
2016-Nov-29 03:00N 44°42' W 063°36'0 0.0 310 / 91015.6 3.5 3.8
2016-Nov-29 02:00N 44°42' W 063°36'0 0.0 320 / 141014.7 3.5 3.8
2016-Nov-29 01:00N 44°42' W 063°36'0 0.0 320 / 121013.9 3.8 4.1
2016-Nov-29 00:00N 44°42' W 063°36'0 0.0 330 / 101012.9 3.8 4.1
2016-Nov-28 23:00N 44°42' W 063°36'0 0.0 320 / 71012.1 3.8 4.1
2016-Nov-28 22:00N 44°42' W 063°36'0 0.0 300 / 51011.4 4.5 4.8
2016-Nov-28 21:00N 44°42' W 063°36'0 0.0 300 / 61011.0 4.7 5.1
2016-Nov-28 20:00N 44°42' W 063°36'0 0.0 310 / 101010.7 4.5 4.8
2016-Nov-28 19:00N 44°42' W 063°36'0 0.0 310 / 111010.2 3.8 4.1
2016-Nov-28 18:00N 44°42' W 063°36'0 0.0 320 / 201009.7 3.7 4.0
2016-Nov-28 17:00N 44°42' W 063°36'0 0.0 310 / 141009.5 3.9 4.2
2016-Nov-28 16:00N 44°42' W 063°36'0 0.0 290 / 91009.7 3.7 4.0
2016-Nov-28 15:00N 44°42' W 063°36'0 0.0 290 / 81010.0 3.6 3.9
2016-Nov-28 14:00N 44°42' W 063°36'0 0.0 280 / 81009.6 2.8 3.1
2016-Nov-28 13:00N 44°42' W 063°36'0 0.0 280 / 81009.1 2.4 2.7
2016-Nov-28 12:00N 44°42' W 063°36'0 0.0 280 / 71008.5 2.5 2.8
2016-Nov-28 11:00N 44°42' W 063°36'0 0.0 310 / 101007.9 1.9 2.3
2016-Nov-28 10:00N 44°42' W 063°36'0 0.0 280 / 71007.4 2.1 2.5
2016-Nov-28 09:00N 44°42' W 063°36'0 0.0 280 / 71007.2 1.9 2.3
2016-Nov-28 08:00N 44°42' W 063°36'0 0.0 280 / 81006.8 1.6 2.0
2016-Nov-28 07:00N 44°42' W 063°36'0 0.0 280 / 61007.0 1.4 1.8
2016-Nov-28 06:00N 44°42' W 063°36'0 0.0 280 / 61006.6 1.6 2.0
2016-Nov-28 05:00N 44°42' W 063°36'0 0.0 290 / 71006.1 1.5 1.9
2016-Nov-28 04:00N 44°42' W 063°36'0 0.0 290 / 81006.1 1.8 2.2
2016-Nov-28 03:00N 44°42' W 063°36'0 0.0 300 / 121005.4 1.8 2.2
2016-Nov-28 02:00N 44°42' W 063°36'0 0.0 310 / 171004.9 1.7 2.2
2016-Nov-28 01:00N 44°42' W 063°36'0 0.0 310 / 201004.4 2.1 2.6
2016-Nov-28 00:00N 44°42' W 063°36'0 0.0 290 / 101004.0 2.4 2.9
2016-Nov-27 23:00N 44°42' W 063°36'0 0.0 310 / 171002.9 2.4 3.0
2016-Nov-27 22:00N 44°42' W 063°36'0 0.0 310 / 211001.6 2.4 2.9
2016-Nov-27 21:00N 44°42' W 063°36'0 0.0 320 / 231001.0 2.4 3.0
2016-Nov-27 20:00N 44°42' W 063°36'0 0.0 330 / 251000.5 2.4 3.0
2016-Nov-27 19:00N 44°42' W 063°36'0 0.0 320 / 27999.3 2.6 3.2
2016-Nov-27 18:00N 44°42' W 063°36'0 0.0 330 / 27998.4 2.6 3.2
2016-Nov-27 17:00N 44°42' W 063°36'0 0.0 330 / 26998.1 2.8 3.4
2016-Nov-27 16:00N 44°42' W 063°36'0 0.0 340 / 18999.5 2.2 2.9
2016-Nov-27 15:00N 44°42' W 063°36'0 0.0 340 / 161001.3 1.6 2.2
2016-Nov-27 14:00N 44°42' W 063°36'0 0.0 340 / 141002.9 1.3 1.9
2016-Nov-27 13:00N 44°42' W 063°36'0 0.0 340 / 131004.2 1.1 1.6
2016-Nov-27 12:00N 44°42' W 063°36'0 0.0 350 / 101005.7 0.8 1.3
2016-Nov-27 11:00N 44°42' W 063°36'0 0.0 340 / 111006.8 0.9 1.4
2016-Nov-27 10:00N 44°42' W 063°36'0 0.0 360 / 81007.7 2.5 3.0
2016-Nov-27 09:00N 44°42' W 063°36'   020 / 101008.4 3.0 3.5
Track history (hours):
 
Tides and Currents Weather Stations Pressure Air Temp Water Temp Dewpoint Dewpoint Depression Visibility Wind Speed Wind Dir Waves Ship Positions

IT Intrepid (Canada)

Canada's IT Telecom's cable laying ship. Ex Sir Eric Sharp, built at Swan Hunter.

Ship's website: http://www.ittelecom.com/IT%20Intrepid%20Data%20Sheet.pdf

Last reported at 2016-Dec-07 09:00 UTC. Time now 2016-Dec-07 10:38 UTC.
Position N 44°42' W 063°36'.

Length 115 m; beam 18 m; draft 6.3 m.

Type: Dredging. MMSI: 314199000.

Wind from 330 at 4 knots

Barometer 1015.4 mb
Air temperature -4.2 ° C
Dewpoint -4.1 ° C

Date/timePositionNaut miles runAvg speedWind from/ knotsBaromVisibWave heightAir tempDewpointWater temp
2016-Dec-07 09:00N 44°42' W 063°36'0 0.0 330 / 41015.4 -4.2-4.1
2016-Dec-07 08:00N 44°42' W 063°36'0 0.0 350 / 41015.8 -4.3-4.2
2016-Dec-07 07:00N 44°42' W 063°36'0 0.0 340 / 31016.4 -3.7-3.6
2016-Dec-07 06:00N 44°42' W 063°36'0 0.0 350 / 31016.5 -3.8-3.7
2016-Dec-07 05:00N 44°42' W 063°36'0 0.0 030 / 41016.6 -3.4-3.3
2016-Dec-07 04:00N 44°42' W 063°36'0 0.0 030 / 21017.0 -3.3-3.2
2016-Dec-07 03:00N 44°42' W 063°36'0 0.0 010 / 31016.7 -3.5-3.4
2016-Dec-07 02:00N 44°42' W 063°36'0 0.0 020 / 41016.5 -3.2-3.1
2016-Dec-07 01:00N 44°42' W 063°36'0 0.0 340 / 41016.6 -3.3-3.2
2016-Dec-07 00:00N 44°42' W 063°36'0 0.0 010 / 61016.6 -2.2-2.1
2016-Dec-06 23:00N 44°42' W 063°36'0 0.0 330 / 101016.1 -0.7-0.6
2016-Dec-06 22:00N 44°42' W 063°36'0 0.0 340 / 61015.7 -0.7-0.6
2016-Dec-06 21:00N 44°42' W 063°36'0 0.0 340 / 81015.4 -0.0 0.1
2016-Dec-06 20:00N 44°42' W 063°36'0 0.0 330 / 101014.9 1.0 1.1
2016-Dec-06 19:00N 44°42' W 063°36'0 0.0 330 / 111014.9 1.1 1.2
2016-Dec-06 18:00N 44°42' W 063°36'0 0.0 320 / 101014.6 1.5 1.6
2016-Dec-06 17:00N 44°42' W 063°36'0 0.0 320 / 91014.5 0.7 0.9
2016-Dec-06 16:00N 44°42' W 063°36'0 0.0 330 / 81014.8 0.1 0.2
2016-Dec-06 15:00N 44°42' W 063°36'0 0.0 350 / 61015.2 -0.9-0.8
2016-Dec-06 14:00N 44°42' W 063°36'0 0.0 350 / 71015.6 -1.4-1.3
2016-Dec-06 13:00N 44°42' W 063°36'0 0.0 340 / 41015.3 -1.9-1.7
2016-Dec-06 12:00N 44°42' W 063°36'0 0.0 340 / 41014.6 -3.0-2.7
2016-Dec-06 11:00N 44°42' W 063°36'0 0.0 330 / 31014.1 -2.9-2.7
2016-Dec-06 10:00N 44°42' W 063°36'0 0.0 340 / 41013.4 -2.7-2.5
2016-Dec-06 09:00N 44°42' W 063°36'0 0.0 340 / 31012.8 -2.6-2.5
2016-Dec-06 08:00N 44°42' W 063°36'0 0.0 360 / 21012.8 -2.3-2.1
2016-Dec-06 07:00N 44°42' W 063°36'0 0.0 050 / 21012.7 -1.9-1.8
2016-Dec-06 06:00N 44°42' W 063°36'0 0.0 100 / 31012.9 -1.5-1.4
2016-Dec-06 05:00N 44°42' W 063°36'0 0.0 040 / 21013.1 -1.6-1.4
2016-Dec-06 04:00N 44°42' W 063°36'0 0.0 040 / 21013.4 -1.5-1.4
2016-Dec-06 03:00N 44°42' W 063°36'0 0.0 010 / 31013.8 -1.4-1.3
2016-Dec-06 02:00N 44°42' W 063°36'0 0.0 010 / 11014.0 -1.2-1.1
2016-Dec-06 01:00N 44°42' W 063°36'0 0.0 350 / 11014.1 -1.4-1.2
2016-Dec-06 00:00N 44°42' W 063°36'0 0.0 040 / 31014.4 -1.3-1.2
2016-Dec-05 23:00N 44°42' W 063°36'0 0.0 010 / 41015.3 -1.3-1.2
2016-Dec-05 22:00N 44°42' W 063°36'0 0.0 320 / 31015.4 -0.7-0.6
2016-Dec-05 21:00N 44°42' W 063°36'0 0.0 340 / 51015.4 -0.7-0.6
2016-Dec-05 20:00N 44°42' W 063°36'0 0.0 350 / 31015.4 -0.8-0.7
2016-Dec-05 18:00N 44°42' W 063°36'0 0.0 350 / 41015.5 -1.0-0.9
2016-Dec-05 17:00N 44°42' W 063°36'0 0.0 350 / 51015.8 -1.2-1.2
2016-Dec-05 16:00N 44°42' W 063°36'0 0.0 350 / 61016.7 -1.6-1.5
2016-Dec-05 15:00N 44°42' W 063°36'0 0.0 330 / 71017.7 -2.2-2.0
2016-Dec-05 14:00N 44°42' W 063°36'0 0.0 340 / 81018.3 -2.9-2.8
2016-Dec-05 13:00N 44°42' W 063°36'0 0.0 340 / 71017.9 -3.1-3.0
2016-Dec-05 12:00N 44°42' W 063°36'0 0.0 340 / 71017.4 -3.2-3.1
2016-Dec-05 11:00N 44°42' W 063°36'0 0.0 350 / 91017.6 -2.7-2.6
2016-Dec-05 10:00N 44°42' W 063°36'0 0.0 320 / 131017.2 -2.1-2.0
2016-Dec-05 09:00N 44°42' W 063°36'0 0.0 310 / 101017.4 -1.5-1.3
2016-Dec-05 08:00N 44°42' W 063°36'0 0.0 330 / 81017.5 -1.5-1.4
2016-Dec-05 07:00N 44°42' W 063°36'0 0.0 340 / 101017.6 -1.6-1.5
2016-Dec-05 06:00N 44°42' W 063°36'0 0.0 320 / 131017.4 -1.4-1.3
2016-Dec-05 05:00N 44°42' W 063°36'0 0.0 340 / 91017.6 -1.4-1.3
2016-Dec-05 04:00N 44°42' W 063°36'0 0.0 340 / 81017.9 -1.7-1.6
2016-Dec-05 03:00N 44°42' W 063°36'0 0.0 330 / 131017.6 -1.3-1.2
2016-Dec-05 02:00N 44°42' W 063°36'0 0.0 340 / 111017.6 -0.9-0.7
2016-Dec-05 01:00N 44°42' W 063°36'0 0.0 340 / 111017.4 -0.7-0.5
2016-Dec-05 00:00N 44°42' W 063°36'0 0.0 340 / 101017.3 -0.7-0.5
2016-Dec-04 23:00N 44°42' W 063°36'0 0.0 330 / 121016.7 -0.6-0.3
2016-Dec-04 22:00N 44°42' W 063°36'0 0.0 340 / 81016.0 -0.6-0.4
2016-Dec-04 21:00N 44°42' W 063°36'0 0.0 340 / 111015.2 -0.0 0.2
2016-Dec-04 20:00N 44°42' W 063°36'0 0.0 340 / 131014.4 0.5 0.7
2016-Dec-04 19:00N 44°42' W 063°36'0 0.0 330 / 131013.6 0.8 1.0
2016-Dec-04 18:00N 44°42' W 063°36'0 0.0 330 / 171013.0 0.7 0.9
2016-Dec-04 17:00N 44°42' W 063°36'0 0.0 330 / 141013.0 0.5 0.7
2016-Dec-04 16:00N 44°42' W 063°36'0 0.0 330 / 131013.1 0.6 0.8
2016-Dec-04 15:00N 44°42' W 063°36'0 0.0 340 / 151013.0 0.7 1.0
2016-Dec-04 14:00N 44°42' W 063°36'0 0.0 330 / 141012.7 0.9 1.2
2016-Dec-04 13:00N 44°42' W 063°36'0 0.0 340 / 81012.3 0.4 0.8
2016-Dec-04 12:00N 44°42' W 063°36'0 0.0 330 / 111011.8 0.5 0.9
2016-Dec-04 11:00N 44°42' W 063°36'0 0.0 330 / 121011.2 0.5 0.9
2016-Dec-04 10:00N 44°42' W 063°36'0 0.0 330 / 101010.5 0.7 1.1
2016-Dec-04 09:00N 44°42' W 063°36'0 0.0 330 / 81010.1 0.5 0.9
2016-Dec-04 08:00N 44°42' W 063°36'0 0.0 340 / 91009.7 0.8 1.2
2016-Dec-04 07:00N 44°42' W 063°36'0 0.0 340 / 101009.3 1.3 1.6
2016-Dec-04 06:00N 44°42' W 063°36'0 0.0 340 / 101008.3 1.9 2.3
2016-Dec-04 05:00N 44°42' W 063°36'0 0.0 350 / 111007.6 2.2 2.6
2016-Dec-04 04:00N 44°42' W 063°36'0 0.0 340 / 101007.1 2.3 2.7
2016-Dec-04 03:00N 44°42' W 063°36'0 0.0 340 / 101006.5 2.3 2.7
2016-Dec-04 02:00N 44°42' W 063°36'0 0.0 340 / 91006.2 2.4 2.9
2016-Dec-04 01:00N 44°42' W 063°36'0 0.0 340 / 101005.7 2.7 3.1
2016-Dec-04 00:00N 44°42' W 063°36'0 0.0 340 / 121005.1 2.9 3.3
2016-Dec-03 23:00N 44°42' W 063°36'0 0.0 340 / 121004.4 3.2 3.6
2016-Dec-03 22:00N 44°42' W 063°36'0 0.0 330 / 111003.6 3.4 3.8
2016-Dec-03 21:00N 44°42' W 063°36'0 0.0 330 / 131002.9 3.9 4.3
2016-Dec-03 20:00N 44°42' W 063°36'0 0.0 330 / 141002.2 4.1 4.5
2016-Dec-03 19:00N 44°42' W 063°36'0 0.0 330 / 121001.5 4.2 4.6
2016-Dec-03 18:00N 44°42' W 063°36'0 0.0 330 / 171001.2 3.5 3.9
2016-Dec-03 17:00N 44°42' W 063°36'0 0.0 340 / 131001.1 3.2 3.7
2016-Dec-03 16:00N 44°42' W 063°36'0 0.0 340 / 101001.3 2.6 3.1
2016-Dec-03 15:00N 44°42' W 063°36'0 0.0 330 / 121001.5 2.1 2.6
2016-Dec-03 14:00N 44°42' W 063°36'0 0.0 330 / 71001.7 1.5 2.0
2016-Dec-03 13:00N 44°42' W 063°36'0 0.0 330 / 81001.6 1.0 1.5
2016-Dec-03 12:00N 44°42' W 063°36'0 0.0 330 / 61001.6 0.6 1.1
2016-Dec-03 11:00N 44°42' W 063°36'0 0.0 310 / 71001.4 0.9 1.3
2016-Dec-03 10:00N 44°42' W 063°36'0 0.0 330 / 61001.3 0.5 1.0
2016-Dec-03 09:00N 44°42' W 063°36'0 0.0 340 / 51001.4 0.7 1.1
2016-Dec-03 08:00N 44°42' W 063°36'0 0.0 330 / 61001.5 0.8 1.2
2016-Dec-03 07:00N 44°42' W 063°36'0 0.0 330 / 61001.9 1.1 1.5
2016-Dec-03 06:00N 44°42' W 063°36'0 0.0 340 / 81001.8 0.9 1.3
2016-Dec-03 05:00N 44°42' W 063°36'0 0.0 330 / 91001.7 1.3 1.7
2016-Dec-03 04:00N 44°42' W 063°36'0 0.0 340 / 91002.0 1.7 2.1
2016-Dec-03 03:00N 44°42' W 063°36'0 0.0 330 / 131002.2 2.4 2.7
2016-Dec-03 02:00N 44°42' W 063°36'0 0.0 320 / 111002.4 2.6 3.0
2016-Dec-03 01:00N 44°42' W 063°36'0 0.0 290 / 51002.8 2.7 3.0
2016-Dec-03 00:00N 44°42' W 063°36'0 0.0 290 / 51002.7 3.3 3.6
2016-Dec-02 23:00N 44°42' W 063°36'0 0.0 300 / 61002.4 3.3 3.7
2016-Dec-02 22:00N 44°42' W 063°36'0 0.0 300 / 71002.2 4.1 4.4
2016-Dec-02 21:00N 44°42' W 063°36'0 0.0 310 / 161001.8 4.4 4.7
2016-Dec-02 20:00N 44°42' W 063°36'0 0.0 310 / 151001.3 5.3 5.6
2016-Dec-02 19:00N 44°42' W 063°36'0 0.0 320 / 211000.3 5.4 5.7
2016-Dec-02 18:00N 44°42' W 063°36'0 0.0 310 / 171000.0 5.9 6.3
2016-Dec-02 17:00N 44°42' W 063°36'0 0.0 300 / 15999.8 5.9 6.3
2016-Dec-02 16:00N 44°42' W 063°36'0 0.0 310 / 14999.8 5.6 5.9
2016-Dec-02 15:00N 44°42' W 063°36'0 0.0 300 / 13999.9 5.1 5.5
2016-Dec-02 14:00N 44°42' W 063°36'0 0.0 290 / 12999.5 5.0 5.4
2016-Dec-02 13:00N 44°42' W 063°36'0 0.0 310 / 12999.0 4.3 4.7
2016-Dec-02 12:00N 44°42' W 063°36'0 0.0 290 / 8998.1 5.0 5.4
2016-Dec-02 11:00N 44°42' W 063°36'0 0.0 280 / 9997.4 5.3 5.8
2016-Dec-02 10:00N 44°42' W 063°36'0 0.0 290 / 8996.7 5.5 6.0
2016-Dec-02 09:00N 44°42' W 063°36'0 0.0 290 / 9996.3 5.8 6.3
2016-Dec-02 08:00N 44°42' W 063°36'0 0.0 290 / 9995.6 5.5 6.0
2016-Dec-02 07:00N 44°42' W 063°36'0 0.0 290 / 10995.3 5.1 5.7
2016-Dec-02 06:00N 44°42' W 063°36'0 0.0 290 / 11994.3 5.5 6.1
2016-Dec-02 05:00N 44°42' W 063°36'0 0.0 300 / 11993.1 6.7 7.4
2016-Dec-02 04:00N 44°42' W 063°36'0 0.0 280 / 10992.0 8.7 9.6
2016-Dec-02 03:00N 44°42' W 063°36'0 0.0 260 / 4991.3 9.110.1
2016-Dec-02 02:00N 44°42' W 063°36'0 0.0 240 / 2991.0 9.810.8
2016-Dec-02 01:00N 44°42' W 063°36'0 0.0 160 / 4991.1 9.010.0
2016-Dec-02 00:00N 44°42' W 063°36'0 0.0 150 / 9991.4 8.8 9.8
2016-Dec-01 23:00N 44°42' W 063°36'0 0.0 170 / 10992.3 8.6 9.5
2016-Dec-01 22:00N 44°42' W 063°36'0 0.0 120 / 20993.0 8.4 9.3
2016-Dec-01 21:00N 44°42' W 063°36'0 0.0 130 / 25994.9 8.2 9.0
2016-Dec-01 20:00N 44°42' W 063°36'0 0.0 140 / 23995.6 8.1 8.9
2016-Dec-01 19:00N 44°42' W 063°36'0 0.0 130 / 24997.3 7.5 8.4
2016-Dec-01 18:00N 44°42' W 063°36'0 0.0 140 / 27999.2 6.9 7.6
2016-Dec-01 17:00N 44°42' W 063°36'0 0.0 130 / 291000.8 6.4 7.1
2016-Dec-01 16:00N 44°42' W 063°36'0 0.0 130 / 281003.4 6.0 6.7
2016-Dec-01 15:00N 44°42' W 063°36'0 0.0 130 / 301006.1 5.6 6.2
2016-Dec-01 14:00N 44°42' W 063°36'0 0.0 130 / 241009.1 5.4 6.0
2016-Dec-01 13:00N 44°42' W 063°36'0 0.0 130 / 211011.6 5.1 5.7
2016-Dec-01 12:00N 44°42' W 063°36'0 0.0 130 / 201013.4 5.0 5.6
2016-Dec-01 10:00N 44°42' W 063°36'0 0.0 110 / 131015.7 2.9 3.4
2016-Dec-01 09:00N 44°42' W 063°36'0 0.0 100 / 121016.4 2.6 3.1
2016-Dec-01 08:00N 44°42' W 063°36'0 0.0 110 / 131017.2 2.4 2.8
2016-Dec-01 07:00N 44°42' W 063°36'0 0.0 110 / 111017.9 2.2 2.7
2016-Dec-01 06:00N 44°42' W 063°36'0 0.0 090 / 71018.7 2.4 2.8
2016-Dec-01 05:00N 44°42' W 063°36'0 0.0 060 / 61019.3 2.3 2.8
2016-Dec-01 04:00N 44°42' W 063°36'0 0.0 100 / 81019.7 2.3 2.7
2016-Dec-01 03:00N 44°42' W 063°36'0 0.0 120 / 91020.2 2.0 2.4
2016-Dec-01 01:00N 44°42' W 063°36'0 0.0 050 / 41021.1 2.1 2.5
2016-Dec-01 00:00N 44°42' W 063°36'0 0.0 070 / 51020.5 2.1 2.5
2016-Nov-30 23:00N 44°42' W 063°36'0 0.0 050 / 51019.9 2.5 3.0
2016-Nov-30 22:00N 44°42' W 063°36'0 0.0 050 / 61018.8 2.8 3.2
2016-Nov-30 21:00N 44°42' W 063°36'0 0.0 030 / 51018.0 3.0 3.5
2016-Nov-30 20:00N 44°42' W 063°36'0 0.0 040 / 71016.4 3.2 3.7
2016-Nov-30 19:00N 44°42' W 063°36'0 0.0 030 / 101015.5 2.9 3.4
2016-Nov-30 18:00N 44°42' W 063°36'0 0.0 360 / 101014.3 3.2 3.8
2016-Nov-30 17:00N 44°42' W 063°36'0 0.0 030 / 91013.4 3.8 4.4
2016-Nov-30 16:00N 44°42' W 063°36'0 0.0 020 / 81012.0 3.0 3.5
2016-Nov-30 15:00N 44°42' W 063°36'0 0.0 040 / 111010.3 2.5 3.1
2016-Nov-30 14:00N 44°42' W 063°36'0 0.0 030 / 121009.2 3.3 4.0
2016-Nov-30 13:00N 44°42' W 063°36'0 0.0 080 / 111008.7 6.2 7.0
2016-Nov-30 12:00N 44°42' W 063°36'0 0.0 120 / 171010.3 6.1 6.9
2016-Nov-30 11:00N 44°42' W 063°36'0 0.0 140 / 201011.5 5.8 6.5
2016-Nov-30 10:00N 44°42' W 063°36'0 0.0 140 / 201011.7 5.4 6.1
2016-Nov-30 09:00N 44°42' W 063°36'0 0.0 140 / 221014.2 4.1 4.7
2016-Nov-30 08:00N 44°42' W 063°36'0 0.0 150 / 161016.5 3.9 4.4
2016-Nov-30 07:00N 44°42' W 063°36'0 0.0 130 / 171019.2 3.1 3.6
2016-Nov-30 06:00N 44°42' W 063°36'0 0.0 140 / 121020.7 3.3 3.8
2016-Nov-30 05:00N 44°42' W 063°36'0 0.0 120 / 111021.5 2.9 3.3
2016-Nov-30 04:00N 44°42' W 063°36'0 0.0 130 / 71022.9 2.6 3.0
2016-Nov-30 03:00N 44°42' W 063°36'0 0.0 120 / 61023.5 2.4 2.7
2016-Nov-30 02:00N 44°42' W 063°36'0 0.0 120 / 71024.4 2.4 2.7
2016-Nov-30 01:00N 44°42' W 063°36'0 0.0 130 / 51025.0 2.7 2.9
2016-Nov-30 00:00N 44°42' W 063°36'0 0.0 110 / 61025.0 2.9 3.1
2016-Nov-29 23:00N 44°42' W 063°36'0 0.0 020 / 11025.8 2.9 3.2
2016-Nov-29 22:00N 44°42' W 063°36'0 0.0 030 / 21025.5 2.9 3.2
2016-Nov-29 21:00N 44°42' W 063°36'0 0.0 050 / 51024.7 3.1 3.3
2016-Nov-29 20:00N 44°42' W 063°36'0 0.0 340 / 51024.9 3.4 3.6
2016-Nov-29 19:00N 44°42' W 063°36'0 0.0 010 / 51023.9 3.6 3.8
2016-Nov-29 18:00N 44°42' W 063°36'0 0.0 350 / 51024.1 3.4 3.7
2016-Nov-29 17:00N 44°42' W 063°36'0 0.0 330 / 81024.4 3.3 3.6
2016-Nov-29 16:00N 44°42' W 063°36'0 0.0 360 / 71024.0 3.1 3.3
2016-Nov-29 15:00N 44°42' W 063°36'0 0.0 340 / 101024.4 2.6 2.9
2016-Nov-29 14:00N 44°42' W 063°36'0 0.0 350 / 111024.0 2.1 2.3
2016-Nov-29 13:00N 44°42' W 063°36'0 0.0 330 / 111023.2 1.5 1.7
2016-Nov-29 12:00N 44°42' W 063°36'0 0.0 330 / 111022.7 0.7 1.0
2016-Nov-29 11:00N 44°42' W 063°36'0 0.0 330 / 121021.9 0.5 0.8
2016-Nov-29 10:00N 44°42' W 063°36'0 0.0 320 / 111020.9 0.7 1.0
2016-Nov-29 09:00N 44°42' W 063°36'0 0.0 320 / 131020.4 0.9 1.2
2016-Nov-29 08:00N 44°42' W 063°36'0 0.0 320 / 131019.6 1.1 1.4
2016-Nov-29 07:00N 44°42' W 063°36'0 0.0 310 / 101018.7 1.7 1.9
2016-Nov-29 06:00N 44°42' W 063°36'0 0.0 330 / 111017.8 1.8 2.1
2016-Nov-29 05:00N 44°42' W 063°36'0 0.0 310 / 121017.0 2.3 2.6
2016-Nov-29 04:00N 44°42' W 063°36'0 0.0 310 / 121016.6 2.6 2.9
2016-Nov-29 03:00N 44°42' W 063°36'0 0.0 310 / 91015.6 3.5 3.8
2016-Nov-29 02:00N 44°42' W 063°36'0 0.0 320 / 141014.7 3.5 3.8
2016-Nov-29 01:00N 44°42' W 063°36'0 0.0 320 / 121013.9 3.8 4.1
2016-Nov-29 00:00N 44°42' W 063°36'0 0.0 330 / 101012.9 3.8 4.1
2016-Nov-28 23:00N 44°42' W 063°36'0 0.0 320 / 71012.1 3.8 4.1
2016-Nov-28 22:00N 44°42' W 063°36'0 0.0 300 / 51011.4 4.5 4.8
2016-Nov-28 21:00N 44°42' W 063°36'0 0.0 300 / 61011.0 4.7 5.1
2016-Nov-28 20:00N 44°42' W 063°36'0 0.0 310 / 101010.7 4.5 4.8
2016-Nov-28 19:00N 44°42' W 063°36'0 0.0 310 / 111010.2 3.8 4.1
2016-Nov-28 18:00N 44°42' W 063°36'0 0.0 320 / 201009.7 3.7 4.0
2016-Nov-28 17:00N 44°42' W 063°36'0 0.0 310 / 141009.5 3.9 4.2
2016-Nov-28 16:00N 44°42' W 063°36'0 0.0 290 / 91009.7 3.7 4.0
2016-Nov-28 15:00N 44°42' W 063°36'0 0.0 290 / 81010.0 3.6 3.9
2016-Nov-28 14:00N 44°42' W 063°36'0 0.0 280 / 81009.6 2.8 3.1
2016-Nov-28 13:00N 44°42' W 063°36'0 0.0 280 / 81009.1 2.4 2.7
2016-Nov-28 12:00N 44°42' W 063°36'0 0.0 280 / 71008.5 2.5 2.8
2016-Nov-28 11:00N 44°42' W 063°36'0 0.0 310 / 101007.9 1.9 2.3
2016-Nov-28 10:00N 44°42' W 063°36'0 0.0 280 / 71007.4 2.1 2.5
2016-Nov-28 09:00N 44°42' W 063°36'0 0.0 280 / 71007.2 1.9 2.3
2016-Nov-28 08:00N 44°42' W 063°36'0 0.0 280 / 81006.8 1.6 2.0
2016-Nov-28 07:00N 44°42' W 063°36'0 0.0 280 / 61007.0 1.4 1.8
2016-Nov-28 06:00N 44°42' W 063°36'0 0.0 280 / 61006.6 1.6 2.0
2016-Nov-28 05:00N 44°42' W 063°36'0 0.0 290 / 71006.1 1.5 1.9
2016-Nov-28 04:00N 44°42' W 063°36'0 0.0 290 / 81006.1 1.8 2.2
2016-Nov-28 03:00N 44°42' W 063°36'0 0.0 300 / 121005.4 1.8 2.2
2016-Nov-28 02:00N 44°42' W 063°36'0 0.0 310 / 171004.9 1.7 2.2
2016-Nov-28 01:00N 44°42' W 063°36'0 0.0 310 / 201004.4 2.1 2.6
2016-Nov-28 00:00N 44°42' W 063°36'0 0.0 290 / 101004.0 2.4 2.9
2016-Nov-27 23:00N 44°42' W 063°36'0 0.0 310 / 171002.9 2.4 3.0
2016-Nov-27 22:00N 44°42' W 063°36'0 0.0 310 / 211001.6 2.4 2.9
2016-Nov-27 21:00N 44°42' W 063°36'0 0.0 320 / 231001.0 2.4 3.0
2016-Nov-27 20:00N 44°42' W 063°36'0 0.0 330 / 251000.5 2.4 3.0
2016-Nov-27 19:00N 44°42' W 063°36'0 0.0 320 / 27999.3 2.6 3.2
2016-Nov-27 18:00N 44°42' W 063°36'0 0.0 330 / 27998.4 2.6 3.2
2016-Nov-27 17:00N 44°42' W 063°36'0 0.0 330 / 26998.1 2.8 3.4
2016-Nov-27 16:00N 44°42' W 063°36'0 0.0 340 / 18999.5 2.2 2.9
2016-Nov-27 15:00N 44°42' W 063°36'0 0.0 340 / 161001.3 1.6 2.2
2016-Nov-27 14:00N 44°42' W 063°36'0 0.0 340 / 141002.9 1.3 1.9
2016-Nov-27 13:00N 44°42' W 063°36'0 0.0 340 / 131004.2 1.1 1.6
2016-Nov-27 12:00N 44°42' W 063°36'0 0.0 350 / 101005.7 0.8 1.3
2016-Nov-27 11:00N 44°42' W 063°36'0 0.0 340 / 111006.8 0.9 1.4
2016-Nov-27 10:00N 44°42' W 063°36'0 0.0 360 / 81007.7 2.5 3.0
2016-Nov-27 09:00N 44°42' W 063°36'   020 / 101008.4 3.0 3.5

Dump ship's entire track history